Time;durP1;ratioP1;P1;durP2;ratioP2;P2;SDS_P1;SDS_P2;PMS_P1;PMS_P2;Temp;Humidity;BMP_temperature;BMP_pressure;BME280_temperature;BME280_humidity;BME280_pressure;Samples;Min_cycle;Max_cycle;Signal;HPM_P1;HPM_P2
2022/03/10 00:00:15;;;;;;;48.70;17.75;;;;;;;4.56;47.39;100515.25;4347904;32;32807;-84
2022/03/10 00:02:43;;;;;;;39.13;16.55;;;;;;;4.43;47.73;100525.81;4348038;32;34192;-83
2022/03/10 00:05:15;;;;;;;30.62;14.52;;;;;;;4.50;47.36;100525.72;4371175;32;33445;-85
2022/03/10 00:07:43;;;;;;;;;;;;;;;4.43;47.59;100531.91;4353687;32;32002;-86
2022/03/10 00:10:11;;;;;;;31.65;13.30;;;;;;;4.50;47.39;100535.31;4342690;32;33808;-85
2022/03/10 00:12:51;;;;;;;42.28;13.93;;;;;;;4.40;47.24;100531.91;4354442;32;33187;-85
2022/03/10 00:15:24;;;;;;;41.90;16.40;;;;;;;4.32;47.17;100539.81;4355131;32;33475;-86
2022/03/10 00:17:53;;;;;;;47.40;18.42;;;;;;;4.37;47.13;100530.19;4352833;32;32840;-85
2022/03/10 00:20:21;;;;;;;43.95;16.48;;;;;;;4.29;47.29;100531.97;4355409;32;33589;-86
2022/03/10 00:22:53;;;;;;;48.35;17.50;;;;;;;4.23;47.41;100531.16;4372295;32;33507;-85
2022/03/10 00:25:21;;;;;;;45.50;16.20;;;;;;;4.12;48.01;100541.66;4372128;32;33226;-85
2022/03/10 00:27:50;;;;;;;35.30;14.48;;;;;;;4.26;47.44;100532.00;4355695;32;34736;-85
2022/03/10 00:30:18;;;;;;;35.38;14.75;;;;;;;4.24;47.37;100545.97;4352280;32;33106;-85
2022/03/10 00:32:50;;;;;;;37.15;13.38;;;;;;;4.05;47.76;100550.44;4366045;32;32580;-85
2022/03/10 00:35:20;;;;;;;19.73;10.07;;;;;;;3.88;48.58;100557.47;4359345;32;33950;-85
2022/03/10 00:37:57;;;;;;;17.50;8.80;;;;;;;4.05;48.00;100560.88;4372396;32;33656;-85
2022/03/10 00:40:25;;;;;;;13.18;6.85;;;;;;;4.04;48.54;100565.25;4374453;32;34391;-85
2022/03/10 00:42:53;;;;;;;22.55;10.15;;;;;;;3.89;48.77;100572.25;4373441;32;32859;-85
2022/03/10 00:45:21;;;;;;;20.88;10.07;;;;;;;3.39;49.90;100573.31;4367229;32;34678;-84
2022/03/10 00:47:52;;;;;;;30.10;11.90;;;;;;;3.79;48.78;100579.28;4355267;32;33741;-85
2022/03/10 00:50:20;;;;;;;16.30;7.80;;;;;;;3.81;48.71;100581.00;4361293;32;32987;-85
2022/03/10 00:52:49;;;;;;;21.27;8.95;;;;;;;3.41;50.02;100587.22;4371895;32;34685;-85
2022/03/10 00:55:17;;;;;;;20.83;9.55;;;;;;;3.30;50.41;100587.25;4349673;32;33157;-85
2022/03/10 00:57:46;;;;;;;17.58;8.73;;;;;;;3.56;49.75;100597.63;4369193;32;33074;-85
2022/03/10 01:00:16;;;;;;;20.62;9.32;;;;;;;3.14;50.65;100601.19;4361918;32;34412;-85
2022/03/10 01:02:43;;;;;;;18.17;8.82;;;;;;;3.14;50.57;100607.28;4363260;32;33602;-85
2022/03/10 01:05:12;;;;;;;18.08;9.68;;;;;;;2.94;51.07;100614.22;4352532;32;33494;-84
2022/03/10 01:07:40;;;;;;;20.37;9.48;;;;;;;2.95;51.01;100619.44;4362182;32;33417;-84
2022/03/10 01:10:12;;;;;;;17.60;9.10;;;;;;;2.97;50.94;100622.06;4374013;32;33942;-84
2022/03/10 01:12:42;;;;;;;19.15;9.02;;;;;;;3.17;50.33;100625.53;4347190;32;33284;-85
2022/03/10 01:15:15;;;;;;;20.77;9.13;;;;;;;3.08;50.35;100626.38;4372035;32;33852;-84
2022/03/10 01:17:44;;;;;;;26.58;9.70;;;;;;;2.96;50.44;100623.78;4367919;32;33106;-85
2022/03/10 01:20:19;;;;;;;30.52;12.30;;;;;;;3.25;49.60;100634.22;4371811;32;32805;-84
2022/03/10 01:22:48;;;;;;;50.22;19.70;;;;;;;3.39;49.07;100626.38;4360687;32;33682;-86
2022/03/10 01:25:21;;;;;;;65.50;23.55;;;;;;;3.46;48.96;100628.09;4359737;32;33648;-85
2022/03/10 01:27:48;;;;;;;53.58;22.08;;;;;;;3.48;48.70;100617.66;4361812;32;34057;-83
2022/03/10 01:30:16;;;;;;;42.05;17.62;;;;;;;3.13;49.78;100615.94;4373985;32;33614;-83
2022/03/10 01:32:44;;;;;;;25.17;11.68;;;;;;;3.25;49.95;100621.16;4369894;32;33470;-83
2022/03/10 01:35:14;;;;;;;22.75;10.65;;;;;;;3.11;50.04;100622.91;4355549;32;33886;-84
2022/03/10 01:37:42;;;;;;;22.25;10.07;;;;;;;3.16;49.78;100628.13;4369482;32;33841;-84
2022/03/10 01:40:13;;;;;;;24.27;10.32;;;;;;;3.06;50.09;100627.28;4361212;32;33460;-85
2022/03/10 01:42:41;;;;;;;23.27;10.02;;;;;;;3.24;49.65;100629.87;4361690;32;33885;-84
2022/03/10 01:45:10;;;;;;;47.55;15.75;;;;;;;3.09;49.73;100640.31;4373432;32;33321;-84
2022/03/10 01:47:38;;;;;;;59.50;21.60;;;;;;;2.95;50.37;100639.44;4348820;32;33172;-84
2022/03/10 01:50:07;;;;;;;45.25;19.20;;;;;;;3.18;49.93;100642.94;4341512;32;34077;-84
2022/03/10 01:52:35;;;;;;;55.10;21.30;;;;;;;3.28;49.46;100642.06;4353622;32;32853;-83
2022/03/10 01:55:03;;;;;;;48.13;18.90;;;;;;;3.14;49.70;100653.38;4374157;32;33337;-84
2022/03/10 01:57:31;;;;;;;48.97;17.95;;;;;;;3.07;50.10;100655.09;4353461;32;32537;-84
2022/03/10 01:59:59;;;;;;;41.00;15.48;;;;;;;3.07;50.51;100658.56;4367684;32;33259;-85
2022/03/10 02:02:27;;;;;;;44.95;17.23;;;;;;;3.25;49.96;100649.00;4367438;32;34477;-86
2022/03/10 02:04:56;;;;;;;62.15;21.77;;;;;;;3.06;50.14;100650.75;4366200;32;34010;-86
2022/03/10 02:10:17;;;;;;;21.90;10.80;;;;;;;2.67;51.68;100647.22;4360646;32;32440;-85
2022/03/10 02:12:55;;;;;;;18.33;9.63;;;;;;;3.11;50.67;100654.22;4372537;32;34503;-84
2022/03/10 02:18:15;;;;;;;35.47;12.85;;;;;;;3.02;51.53;100669.88;4371009;32;32839;-83
2022/03/10 02:20:44;;;;;;;35.17;14.10;;;;;;;2.97;51.52;100666.41;4365385;32;33628;-84
2022/03/10 02:23:15;;;;;;;49.40;17.50;;;;;;;3.03;51.39;100662.03;4355824;32;33659;-84
2022/03/10 02:25:43;;;;;;;25.62;12.23;;;;;;;2.97;52.05;100672.47;4360645;32;33493;-84
2022/03/10 02:28:11;;;;;;;31.10;12.57;;;;;;;3.49;50.42;100679.47;4373599;32;33199;-83
2022/03/10 02:30:39;;;;;;;33.30;13.35;;;;;;;3.22;51.15;100678.59;4373548;32;34550;-84
2022/03/10 02:33:06;;;;;;;32.58;12.73;;;;;;;2.92;52.22;100681.19;4368288;32;34661;-83
2022/03/10 02:35:34;;;;;;;32.63;12.45;;;;;;;2.89;52.50;100689.84;4351317;32;32845;-83
2022/03/10 02:38:02;;;;;;;32.42;14.10;;;;;;;3.03;52.13;100687.28;4353024;32;32873;-83
2022/03/10 02:40:30;;;;;;;28.65;12.18;;;;;;;3.08;52.26;100691.63;4362353;32;33817;-84
2022/03/10 02:42:58;;;;;;;27.02;12.27;;;;;;;3.32;51.44;100690.78;4351711;32;33882;-83
2022/03/10 02:45:27;;;;;;;29.85;12.80;;;;;;;3.25;51.84;100691.66;4364524;32;33451;-83
2022/03/10 02:47:55;;;;;;;20.60;11.30;;;;;;;3.17;52.52;100698.59;4352818;32;32919;-84
2022/03/10 02:50:23;;;;;;;29.58;11.27;;;;;;;3.32;51.74;100693.41;4353225;32;32782;-84
2022/03/10 02:52:51;;;;;;;21.98;10.30;;;;;;;3.09;52.31;100700.34;4372984;32;34673;-83
2022/03/10 02:55:19;;;;;;;27.80;11.12;;;;;;;3.03;52.72;100693.34;4365362;32;34327;-83
2022/03/10 02:57:48;;;;;;;25.25;11.70;;;;;;;3.39;51.97;100696.88;4371367;32;33791;-84
2022/03/10 03:00:16;;;;;;;26.15;10.95;;;;;;;3.70;51.11;100697.69;4359660;32;32979;-83
2022/03/10 03:02:44;;;;;;;30.88;11.30;;;;;;;3.67;51.30;100708.16;4364150;32;33365;-85
2022/03/10 03:05:13;;;;;;;27.52;10.80;;;;;;;3.15;52.97;100710.78;4373247;32;33288;-84
2022/03/10 03:07:43;;;;;;;27.42;10.63;;;;;;;3.46;52.08;100716.88;4371304;32;32971;-84
2022/03/10 03:10:12;;;;;;;22.55;9.32;;;;;;;3.51;51.93;100719.47;4357719;32;34580;-84
2022/03/10 03:12:45;;;;;;;24.02;10.32;;;;;;;3.09;53.95;100721.22;4371969;32;33792;-84
2022/03/10 03:15:12;;;;;;;19.73;10.07;;;;;;;3.27;52.72;100722.97;4360407;32;34347;-84
2022/03/10 03:17:40;;;;;;;22.02;9.23;;;;;;;3.14;53.50;100729.91;4361004;32;34286;-83
2022/03/10 03:20:09;;;;;;;20.88;9.63;;;;;;;3.57;51.66;100730.81;4369864;32;33785;-84
2022/03/10 03:22:37;;;;;;;17.15;10.10;;;;;;;3.38;52.24;100725.59;4361321;32;33597;-84
2022/03/10 03:25:05;;;;;;;21.85;10.13;;;;;;;3.41;52.28;100725.56;4360630;32;33843;-84
2022/03/10 03:27:32;;;;;;;22.23;10.05;;;;;;;3.50;52.34;100725.59;4364948;32;33514;-84
2022/03/10 03:30:00;;;;;;;20.50;8.95;;;;;;;3.48;52.68;100732.56;4365051;32;33782;-84
2022/03/10 03:32:28;;;;;;;21.75;10.63;;;;;;;3.22;52.71;100733.38;4357777;32;32821;-84
2022/03/10 03:34:55;;;;;;;20.10;9.40;;;;;;;3.55;51.63;100734.28;4359742;32;32878;-83
2022/03/10 03:37:23;;;;;;;18.15;9.18;;;;;;;3.70;51.38;100747.31;4357891;32;33700;-84
2022/03/10 03:39:50;;;;;;;17.17;9.07;;;;;;;3.83;50.68;100756.03;4357724;32;32500;-84
2022/03/10 03:42:18;;;;;;;20.77;8.40;;;;;;;3.55;51.62;100761.25;4372520;32;33002;-83
2022/03/10 03:44:46;;;;;;;21.73;10.32;;;;;;;3.62;51.81;100761.28;4372584;32;34708;-84
2022/03/10 03:47:14;;;;;;;21.30;9.38;;;;;;;3.64;51.93;100756.91;4372535;32;34399;-84
2022/03/10 03:49:41;;;;;;;21.65;8.95;;;;;;;3.60;52.21;100769.97;4350684;32;33767;-84
2022/03/10 03:52:09;;;;;;;22.83;9.55;;;;;;;3.55;52.55;100770.84;4373081;32;33975;-84
2022/03/10 03:54:38;;;;;;;18.08;9.18;;;;;;;3.62;52.61;100777.81;4371428;32;34553;-84
2022/03/10 03:57:05;;;;;;;19.30;8.77;;;;;;;3.88;52.20;100785.63;4372299;32;33419;-84
2022/03/10 03:59:33;;;;;;;18.25;9.40;;;;;;;3.88;52.60;100785.63;4358656;32;33155;-83
2022/03/10 04:02:00;;;;;;;22.27;10.40;;;;;;;3.59;53.18;100785.63;4369121;32;36436;-85
2022/03/10 04:04:28;;;;;;;34.17;12.57;;;;;;;3.55;53.37;100782.16;4360311;32;33578;-85
2022/03/10 04:06:56;;;;;;;26.73;11.95;;;;;;;4.06;52.17;100801.31;4352198;32;33915;-85
2022/03/10 04:09:24;;;;;;;25.85;11.85;;;;;;;3.83;52.49;100792.59;4368376;32;34309;-86
2022/03/10 04:11:52;;;;;;;20.30;10.85;;;;;;;3.92;52.73;100797.84;4351122;32;34408;-85
2022/03/10 04:14:19;;;;;;;25.80;11.18;;;;;;;4.19;52.37;100803.91;4355549;32;34692;-85
2022/03/10 04:16:47;;;;;;;23.27;10.32;;;;;;;3.91;52.95;100803.06;4354321;32;33416;-85
2022/03/10 04:19:18;;;;;;;26.83;11.80;;;;;;;4.09;52.67;100810.91;4374467;32;33631;-85
2022/03/10 04:21:45;;;;;;;19.73;10.40;;;;;;;4.36;51.92;100808.22;4355335;32;33751;-84
2022/03/10 04:24:13;;;;;;;23.40;12.52;;;;;;;3.90;53.49;100815.25;4369292;32;34439;-84
2022/03/10 04:26:42;;;;;;;23.55;11.65;;;;;;;4.08;53.62;100819.59;4374363;32;33897;-84
2022/03/10 04:29:09;;;;;;;22.52;10.70;;;;;;;4.10;53.80;100828.31;4366564;32;33765;-84
2022/03/10 04:31:37;;;;;;;21.08;11.10;;;;;;;3.93;54.32;100822.22;4354124;32;33003;-84
2022/03/10 04:34:05;;;;;;;20.50;10.70;;;;;;;4.10;54.42;100821.34;4366922;32;33456;-85
2022/03/10 04:36:33;;;;;;;17.00;9.10;;;;;;;4.22;55.96;100820.44;4368387;32;33648;-85
2022/03/10 04:39:01;;;;;;;21.42;9.93;;;;;;;4.40;56.31;100818.69;4364686;32;34637;-85
2022/03/10 04:41:29;;;;;;;20.92;9.55;;;;;;;4.35;57.15;100823.91;4351586;32;34000;-85
2022/03/10 04:43:57;;;;;;;19.17;9.38;;;;;;;4.75;56.54;100829.94;4357322;32;33601;-85
2022/03/10 04:46:25;;;;;;;19.95;10.52;;;;;;;4.68;57.17;100835.16;4371530;32;33777;-84
2022/03/10 04:48:53;;;;;;;17.15;9.50;;;;;;;4.82;56.81;100842.09;4348468;32;32894;-84
2022/03/10 04:51:21;;;;;;;17.58;9.85;;;;;;;4.62;57.59;100843.91;4361915;32;33827;-85
2022/03/10 04:53:48;;;;;;;20.23;9.20;;;;;;;4.94;56.57;100851.66;4374542;32;33921;-85
2022/03/10 04:56:16;;;;;;;20.73;10.35;;;;;;;5.12;56.12;100853.31;4368495;32;34281;-84
2022/03/10 04:58:44;;;;;;;22.25;10.50;;;;;;;5.53;54.67;100858.31;4367921;32;33759;-85
2022/03/10 05:01:12;;;;;;;21.20;9.70;;;;;;;5.45;54.78;100861.88;4361449;32;32777;-84
2022/03/10 05:03:45;;;;;;;21.58;9.57;;;;;;;5.41;54.96;100858.38;4361987;32;33523;-85
2022/03/10 05:06:13;;;;;;;24.20;9.23;;;;;;;5.65;53.01;100857.41;4353603;32;32539;-84
2022/03/10 05:08:41;;;;;;;20.17;9.35;;;;;;;5.68;52.26;100867.84;4361571;32;32137;-85
2022/03/10 05:11:09;;;;;;;14.65;8.10;;;;;;;5.56;51.78;100874.03;4361443;32;33819;-85
2022/03/10 05:13:36;;;;;;;15.82;8.13;;;;;;;5.50;51.50;100881.03;4369502;32;34400;-84
2022/03/10 05:16:04;;;;;;;13.50;6.45;;;;;;;5.42;51.21;100886.34;4348097;32;32630;-84
2022/03/10 05:18:34;;;;;;;13.02;7.15;;;;;;;5.22;51.01;100883.84;4349754;32;34070;-84
2022/03/10 05:21:02;;;;;;;12.30;7.25;;;;;;;5.22;50.62;100883.84;4373988;32;34294;-85
2022/03/10 05:23:30;;;;;;;10.40;6.05;;;;;;;5.26;50.24;100897.75;4373211;32;34574;-85
2022/03/10 05:25:58;;;;;;;12.85;7.07;;;;;;;5.25;49.99;100896.03;4358931;32;32898;-84
2022/03/10 05:28:25;;;;;;;8.38;5.05;;;;;;;5.36;48.65;100902.97;4359456;32;32810;-84
2022/03/10 05:30:53;;;;;;;11.48;5.03;;;;;;;5.43;47.54;100908.16;4344560;32;34013;-85
2022/03/10 05:33:21;;;;;;;10.45;5.70;;;;;;;4.78;48.47;100908.37;4352755;32;33761;-85
2022/03/10 05:35:48;;;;;;;9.05;4.45;;;;;;;4.97;47.52;100910.97;4343621;32;32081;-85
2022/03/10 05:38:16;;;;;;;7.22;3.87;;;;;;;4.78;47.32;100918.84;4342387;32;33397;-84
2022/03/10 05:40:44;;;;;;;7.37;3.95;;;;;;;4.27;46.08;100910.22;4361359;32;33071;-84
2022/03/10 05:43:13;;;;;;;5.07;3.20;;;;;;;4.49;46.51;100918.03;4367800;32;33164;-84
2022/03/10 05:45:43;;;;;;;5.32;3.50;;;;;;;4.79;45.37;100912.75;4372927;32;33070;-84
2022/03/10 05:48:11;;;;;;;8.38;3.92;;;;;;;4.84;44.69;100920.59;4361650;32;33308;-85
2022/03/10 05:50:39;;;;;;;6.95;3.55;;;;;;;5.18;43.47;100921.37;4372292;32;34058;-83
2022/03/10 05:53:07;;;;;;;6.03;2.62;;;;;;;5.00;44.06;100924.91;4363396;32;32790;-84
2022/03/10 05:55:39;;;;;;;5.53;2.65;;;;;;;4.21;44.25;100925.88;4347239;32;33625;-84
2022/03/10 05:58:06;;;;;;;6.00;2.80;;;;;;;5.07;42.78;100925.75;4369917;32;34610;-84
2022/03/10 06:00:34;;;;;;;6.55;2.90;;;;;;;4.95;42.79;100931.91;4361228;32;34649;-85
2022/03/10 06:03:03;;;;;;;7.65;2.67;;;;;;;4.86;43.45;100937.16;4361969;32;34262;-84
2022/03/10 06:05:30;;;;;;;4.62;2.28;;;;;;;4.89;42.30;100937.19;4360054;32;32226;-83
2022/03/10 06:07:58;;;;;;;9.48;2.95;;;;;;;4.54;42.79;100934.59;4369213;32;33849;-84
2022/03/10 06:10:26;;;;;;;8.15;3.75;;;;;;;5.00;41.44;100943.25;4357088;32;33880;-83
2022/03/10 06:12:54;;;;;;;5.43;2.80;;;;;;;4.49;43.35;100933.72;4352343;32;34498;-83
2022/03/10 06:15:21;;;;;;;6.87;2.95;;;;;;;4.46;42.59;100952.91;4345455;32;32797;-83
2022/03/10 06:17:51;;;;;;;4.55;2.53;;;;;;;4.22;42.80;100951.16;4352605;32;33369;-83
2022/03/10 06:20:19;;;;;;;6.25;2.72;;;;;;;4.77;41.84;100964.22;4365504;32;34622;-87
2022/03/10 06:22:47;;;;;;;7.12;2.92;;;;;;;5.03;41.34;100976.37;4360580;32;33473;-87
2022/03/10 06:25:17;;;;;;;6.25;2.85;;;;;;;4.90;41.46;100965.09;4373591;32;32212;-87
2022/03/10 06:27:44;;;;;;;8.50;2.42;;;;;;;4.85;41.22;100972.06;4351324;32;32636;-87
2022/03/10 06:30:12;;;;;;;5.65;3.25;;;;;;;4.01;43.37;100977.28;4360160;32;33804;-87
2022/03/10 06:32:40;;;;;;;6.87;2.33;;;;;;;4.14;43.06;100981.66;4358578;32;32409;-87
2022/03/10 06:35:11;;;;;;;6.93;2.72;;;;;;;4.47;41.93;100980.81;4371652;32;32267;-86
2022/03/10 06:37:43;;;;;;;4.07;2.25;;;;;;;4.23;42.77;100986.91;4360780;32;34037;-87
2022/03/10 06:40:12;;;;;;;5.65;3.17;;;;;;;4.39;42.47;100982.56;4354656;32;32706;-87
2022/03/10 06:42:40;;;;;;;5.10;2.28;;;;;;;4.44;42.73;100993.00;4361022;32;33281;-87
2022/03/10 06:45:08;;;;;;;5.15;2.45;;;;;;;4.37;43.04;100998.25;4373500;32;33176;-87
2022/03/10 06:47:38;;;;;;;5.85;2.50;;;;;;;4.60;42.51;100997.38;4355299;32;33012;-87
2022/03/10 06:50:07;;;;;;;5.12;2.28;;;;;;;4.41;41.78;101001.72;4346256;32;33306;-87
2022/03/10 06:52:35;;;;;;;5.57;2.33;;;;;;;4.23;42.58;101007.81;4372839;32;33670;-87
2022/03/10 06:55:03;;;;;;;5.50;2.58;;;;;;;4.21;42.12;101003.44;4347393;32;32724;-87
2022/03/10 06:57:31;;;;;;;5.47;3.58;;;;;;;3.98;42.20;101008.62;4347956;32;32898;-86
2022/03/10 06:59:59;;;;;;;4.78;2.50;;;;;;;4.28;42.39;101015.66;4353066;32;33956;-86
2022/03/10 07:02:26;;;;;;;7.85;3.47;;;;;;;4.62;42.25;101011.34;4362241;32;33149;-86
2022/03/10 07:04:55;;;;;;;5.28;3.03;;;;;;;4.57;42.80;101013.94;4348461;32;33442;-86
2022/03/10 07:07:22;;;;;;;6.35;2.65;;;;;;;4.56;42.90;101027.03;4352534;32;33881;-86
2022/03/10 07:09:50;;;;;;;5.37;2.92;;;;;;;4.49;42.68;101033.97;4363802;32;34323;-87
2022/03/10 07:12:17;;;;;;;4.30;2.40;;;;;;;3.92;43.31;101037.34;4351356;32;32547;-86
2022/03/10 07:14:53;;;;;;;3.70;2.17;;;;;;;3.95;42.66;101040.00;4368608;32;32681;-87
2022/03/10 07:17:20;;;;;;;4.28;2.70;;;;;;;3.99;41.90;101044.38;4347425;32;33123;-86
2022/03/10 07:19:48;;;;;;;4.50;2.50;;;;;;;4.00;41.82;101046.09;4350614;32;34000;-87
2022/03/10 07:22:19;;;;;;;5.00;2.35;;;;;;;4.18;41.56;101042.62;4362368;32;32738;-86
2022/03/10 07:24:46;;;;;;;5.12;2.92;;;;;;;3.90;42.11;101050.44;4364381;32;33664;-87
2022/03/10 07:27:15;;;;;;;6.55;2.95;;;;;;;3.89;43.49;101058.25;4366489;32;32900;-87
2022/03/10 07:29:42;;;;;;;3.58;2.22;;;;;;;4.51;41.67;101044.44;4367902;32;34270;-87
2022/03/10 07:32:10;;;;;;;6.45;2.85;;;;;;;4.97;41.39;101040.09;4361486;32;34149;-86
2022/03/10 07:34:38;;;;;;;8.88;3.03;;;;;;;4.47;41.92;101055.78;4346199;32;32936;-86
2022/03/10 07:37:06;;;;;;;4.82;3.10;;;;;;;4.50;41.67;101050.53;4351520;32;33717;-86
2022/03/10 07:39:33;;;;;;;6.30;2.70;;;;;;;4.78;40.86;101047.06;4364437;32;33065;-87
2022/03/10 07:42:02;;;;;;;5.68;3.35;;;;;;;4.97;41.11;101044.44;4346389;32;31869;-87
2022/03/10 07:44:29;;;;;;;6.62;3.33;;;;;;;5.14;40.90;101043.56;4360360;32;32735;-87
2022/03/10 07:46:57;;;;;;;7.35;3.00;;;;;;;4.90;41.52;101046.22;4367921;32;33163;-86
2022/03/10 07:49:25;;;;;;;4.43;2.72;;;;;;;5.25;41.50;101042.66;4367905;32;32768;-87
2022/03/10 07:51:52;;;;;;;5.75;2.65;;;;;;;5.60;39.78;101048.69;4360594;32;33746;-87
2022/03/10 07:54:22;;;;;;;4.15;2.83;;;;;;;5.99;38.45;101049.44;4365393;32;32911;-87
2022/03/10 07:56:50;;;;;;;5.07;2.60;;;;;;;6.00;38.15;101048.53;4358670;32;33758;-87
2022/03/10 07:59:18;;;;;;;4.45;2.87;;;;;;;5.85;39.07;101054.69;4358361;32;34744;-87
2022/03/10 08:01:45;;;;;;;7.70;3.62;;;;;;;5.70;38.15;101057.37;4341361;32;33799;-87
2022/03/10 08:04:13;;;;;;;5.03;3.25;;;;;;;5.84;38.66;101050.34;4353780;32;33232;-87
2022/03/10 08:06:41;;;;;;;7.30;3.20;;;;;;;5.81;38.17;101047.72;4363734;32;33138;-86
2022/03/10 08:09:10;;;;;;;12.70;3.35;;;;;;;6.15;38.21;101052.84;4359408;32;33549;-87
2022/03/10 08:11:39;;;;;;;8.30;3.30;;;;;;;5.93;38.24;101051.19;4358135;32;35007;-87
2022/03/10 08:14:08;;;;;;;6.95;2.83;;;;;;;5.52;37.83;101054.84;4359670;32;34139;-87
2022/03/10 08:16:36;;;;;;;5.40;3.40;;;;;;;5.80;37.51;101060.84;4353711;32;33131;-87
2022/03/10 08:19:05;;;;;;;5.82;3.58;;;;;;;6.35;36.81;101045.69;4370717;32;32901;-87
2022/03/10 08:21:32;;;;;;;5.80;3.30;;;;;;;6.53;37.58;101059.59;4368734;32;33988;-86
2022/03/10 08:24:00;;;;;;;6.47;2.95;;;;;;;6.29;36.42;101055.38;4371710;32;33051;-86
2022/03/10 08:26:29;;;;;;;4.80;2.87;;;;;;;6.61;35.97;101052.53;4358220;32;34439;-87
2022/03/10 08:28:56;;;;;;;5.28;3.10;;;;;;;6.95;34.32;101047.88;4352879;32;33397;-87
2022/03/10 08:31:24;;;;;;;6.25;3.47;;;;;;;6.50;34.63;101056.97;4360397;32;33813;-87
2022/03/10 08:33:53;;;;;;;6.47;3.05;;;;;;;6.15;35.78;101058.06;4359331;32;32244;-86
2022/03/10 08:36:20;;;;;;;8.32;2.65;;;;;;;6.52;35.83;101052.59;4370217;32;34638;-86
2022/03/10 08:38:48;;;;;;;5.93;3.60;;;;;;;6.87;34.53;101049.69;4358985;32;35300;-84
2022/03/10 08:41:17;;;;;;;6.85;3.25;;;;;;;7.22;33.63;101041.50;4351803;32;33195;-84
2022/03/10 08:43:45;;;;;;;5.45;3.35;;;;;;;7.40;34.14;101030.78;4359603;32;34238;-84
2022/03/10 08:46:12;;;;;;;7.40;3.42;;;;;;;7.37;33.98;101043.97;4347608;32;32854;-84
2022/03/10 08:48:41;;;;;;;5.65;2.47;;;;;;;7.07;33.82;101034.63;4359877;32;32843;-84
2022/03/10 08:51:09;;;;;;;5.32;2.65;;;;;;;6.87;34.63;101041.81;4358857;32;32927;-84
2022/03/10 08:53:37;;;;;;;4.28;2.65;;;;;;;6.47;35.85;101049.16;4358523;32;33497;-84
2022/03/10 08:56:07;;;;;;;5.53;3.12;;;;;;;6.60;34.61;101041.19;4340094;32;33088;-84
2022/03/10 08:58:34;;;;;;;6.12;3.00;;;;;;;6.82;35.06;101041.00;4358748;32;34096;-84
2022/03/10 09:01:02;;;;;;;5.18;2.95;;;;;;;6.68;34.66;101049.84;4367546;32;33798;-85
2022/03/10 09:03:50;;;;;;;6.22;3.25;;;;;;;6.73;34.95;101041.06;4367072;32;34113;-84
2022/03/10 09:06:19;;;;;;;6.45;2.92;;;;;;;6.89;33.98;101050.56;4374400;32;34675;-84
2022/03/10 09:08:48;;;;;;;4.50;2.12;;;;;;;6.99;32.88;101043.47;4373751;32;33907;-84
2022/03/10 09:11:17;;;;;;;8.57;2.42;;;;;;;7.01;30.34;101047.81;4361702;32;33498;-84
2022/03/10 09:13:48;;;;;;;4.45;2.33;;;;;;;6.19;30.08;101059.81;4367003;32;33125;-84
2022/03/10 09:16:17;;;;;;;3.90;2.28;;;;;;;6.29;30.66;101069.34;4349046;32;32792;-87
2022/03/10 09:18:46;;;;;;;5.43;2.53;;;;;;;6.93;30.86;101054.88;4361771;32;34110;-85
2022/03/10 09:21:15;;;;;;;5.28;2.25;;;;;;;6.73;30.07;101060.31;4360238;32;33742;-86
2022/03/10 09:23:43;;;;;;;4.80;3.05;;;;;;;7.09;28.83;101060.87;4348470;32;34070;-86
2022/03/10 09:26:11;;;;;;;3.90;2.17;;;;;;;7.35;28.24;101058.84;4360967;32;34643;-87
2022/03/10 09:28:38;;;;;;;5.72;2.03;;;;;;;7.17;31.21;101067.81;4372802;32;34039;-87
2022/03/10 09:31:08;;;;;;;3.03;2.53;;;;;;;7.21;28.36;101070.41;4361674;32;34003;-85
2022/03/10 09:33:35;;;;;;;6.93;2.42;;;;;;;6.98;28.62;101074.13;4349835;32;33096;-85
2022/03/10 09:36:03;;;;;;;3.42;2.22;;;;;;;6.71;29.48;101076.97;4359711;32;35659;-86
2022/03/10 09:38:33;;;;;;;10.77;2.78;;;;;;;7.16;30.43;101076.56;4352617;32;33353;-85
2022/03/10 09:41:01;;;;;;;6.28;2.75;;;;;;;7.85;30.30;101070.56;4361442;32;34369;-85
2022/03/10 09:43:31;;;;;;;4.10;2.55;;;;;;;7.72;27.79;101068.97;4373510;32;33487;-85
2022/03/10 09:46:00;;;;;;;4.53;2.58;;;;;;;7.87;27.84;101079.31;4353405;32;33151;-85
2022/03/10 09:48:28;;;;;;;4.60;2.70;;;;;;;8.39;27.49;101062.00;4360959;32;33795;-85
2022/03/10 09:50:56;;;;;;;10.85;3.60;;;;;;;8.09;27.45;101077.28;4367559;32;32957;-85
2022/03/10 09:53:30;;;;;;;5.22;2.83;;;;;;;7.57;29.49;101072.66;4361240;32;33449;-84
2022/03/10 09:55:58;;;;;;;4.75;2.58;;;;;;;7.81;27.00;101068.88;4361000;32;34949;-85
2022/03/10 09:58:25;;;;;;;7.78;2.70;;;;;;;8.19;26.27;101068.38;4352859;32;33989;-85
2022/03/10 10:01:00;;;;;;;6.18;2.10;;;;;;;8.44;25.78;101065.41;4339960;32;33469;-85
2022/03/10 10:03:28;;;;;;;4.85;2.00;;;;;;;8.19;26.26;101068.38;4358903;32;34510;-85
2022/03/10 10:05:58;;;;;;;4.70;2.85;;;;;;;7.69;28.97;101069.00;4360534;32;33704;-85
2022/03/10 10:08:27;;;;;;;4.50;2.92;;;;;;;7.83;26.91;101075.00;4361676;32;33626;-84
2022/03/10 10:10:56;;;;;;;9.98;2.10;;;;;;;7.72;26.55;101084.75;4363438;32;33312;-85
2022/03/10 10:13:32;;;;;;;3.47;1.85;;;;;;;7.86;26.54;101090.72;4347297;32;32410;-85
2022/03/10 10:16:05;;;;;;;3.65;2.62;;;;;;;8.16;26.41;101096.47;4359937;32;34076;-85
2022/03/10 10:18:35;;;;;;;4.32;2.03;;;;;;;8.04;27.66;101096.66;4353590;32;35172;-85
2022/03/10 10:21:12;;;;;;;7.97;2.53;;;;;;;8.45;25.67;101073.31;4360857;32;32942;-85
2022/03/10 10:23:40;;;;;;;4.85;2.65;;;;;;;9.03;24.47;101075.91;4363760;32;32436;-85
2022/03/10 10:26:10;;;;;;;6.00;2.45;;;;;;;8.82;24.74;101072.72;4371806;32;34324;-84
2022/03/10 10:28:48;;;;;;;5.45;2.00;;;;;;;8.30;25.44;101081.37;4360769;32;33020;-85
2022/03/10 10:31:21;;;;;;;6.90;2.30;;;;;;;8.75;24.88;101086.91;4361217;32;34501;-85
2022/03/10 10:34:03;;;;;;;2.67;1.55;;;;;;;8.71;24.60;101090.47;4360130;32;32655;-86
2022/03/10 10:36:33;;;;;;;3.70;2.00;;;;;;;8.87;25.89;101089.31;4361463;32;33251;-85
2022/03/10 10:39:09;;;;;;;5.32;2.42;;;;;;;9.38;23.24;101076.16;4372347;32;35890;-85
2022/03/10 10:41:42;;;;;;;5.35;2.08;;;;;;;9.20;22.38;101074.72;4361069;32;32750;-84
2022/03/10 10:44:12;;;;;;;;;;;;;;;9.12;22.78;101075.75;4372534;32;31828;-85
2022/03/10 10:46:43;;;;;;;3.35;1.75;;;;;;;8.66;22.92;101087.03;4373252;32;33750;-90
2022/03/10 10:49:16;;;;;;;5.67;2.10;;;;;;;8.95;23.28;101076.91;4360454;32;33803;-86
2022/03/10 10:51:44;;;;;;;;;;;;;;;9.62;21.92;101066.91;4361135;32;34690;-86
2022/03/10 10:54:19;;;;;;;5.90;1.77;;;;;;;9.11;23.00;101084.53;4369992;32;33805;-86
2022/03/10 10:56:52;;;;;;;4.43;1.95;;;;;;;9.03;22.87;101089.97;4360634;32;32970;-87
2022/03/10 10:59:36;;;;;;;4.28;1.92;;;;;;;8.64;22.70;101084.44;4360710;32;33305;-86
2022/03/10 11:02:12;;;;;;;2.83;1.70;;;;;;;9.32;22.85;101081.53;4370515;32;34401;-86
2022/03/10 11:04:43;;;;;;;3.83;2.10;;;;;;;9.11;21.42;101092.44;4368050;32;32671;-86
2022/03/10 11:07:11;;;;;;;4.25;1.98;;;;;;;8.54;22.25;101087.22;4372597;32;33491;-87
2022/03/10 11:09:41;;;;;;;2.83;1.55;;;;;;;9.18;21.99;101075.66;4360926;32;33736;-87
2022/03/10 11:12:11;;;;;;;2.92;1.75;;;;;;;9.55;22.49;101074.97;4371083;32;33524;-87
2022/03/10 11:14:39;;;;;;;3.03;1.85;;;;;;;9.96;26.05;101082.91;4360921;32;33304;-87
2022/03/10 11:17:08;;;;;;;1.90;1.70;;;;;;;9.85;23.77;101071.72;4373002;32;33173;-87
2022/03/10 11:19:39;;;;;;;1.90;1.52;;;;;;;10.52;21.02;101075.56;4359051;32;33649;-87
2022/03/10 11:22:09;;;;;;;4.70;2.62;;;;;;;10.63;21.41;101063.87;4366565;32;33235;-87
2022/03/10 11:24:55;;;;;;;5.75;2.47;;;;;;;9.80;22.64;101084.13;4361406;32;33466;-87
2022/03/10 11:27:27;;;;;;;2.75;2.00;;;;;;;9.13;22.87;101080.13;4365963;32;34334;-86
2022/03/10 11:29:57;;;;;;;3.80;2.30;;;;;;;9.34;22.78;101079.72;4372558;32;34258;-87
2022/03/10 11:32:29;;;;;;;3.58;2.60;;;;;;;9.53;27.92;101072.34;4356287;32;34067;-87
2022/03/10 11:34:58;;;;;;;;;;;;;;;10.40;23.38;101067.06;4372787;32;32637;-87
2022/03/10 11:37:42;;;;;;;2.87;2.25;;;;;;;10.96;25.45;101056.91;4360377;32;34154;-87
2022/03/10 11:40:15;;;;;;;3.53;1.83;;;;;;;11.08;20.21;101061.88;4361283;32;34058;-87